createdAt,value
2019-03-28T00:00:46.374Z,6.37
2019-03-28T00:02:52.021Z,6.38
2019-03-28T00:04:57.674Z,6.40
2019-03-28T00:07:03.421Z,6.36
2019-03-28T00:09:09.659Z,6.37
2019-03-28T00:11:15.332Z,6.36
2019-03-28T00:13:21.004Z,6.33
2019-03-28T00:15:26.582Z,6.30
2019-03-28T00:17:32.249Z,6.23
2019-03-28T00:19:37.943Z,6.22
2019-03-28T00:21:43.660Z,6.23
2019-03-28T00:23:53.869Z,6.22
2019-03-28T00:25:59.656Z,6.21
2019-03-28T00:28:05.302Z,6.19
2019-03-28T00:30:11.076Z,6.19
2019-03-28T00:32:16.748Z,6.18
2019-03-28T00:34:22.400Z,6.16
2019-03-28T00:36:28.047Z,6.14
2019-03-28T00:38:33.722Z,6.17
2019-03-28T00:40:39.368Z,6.17
2019-03-28T00:42:45.019Z,6.20
2019-03-28T00:44:50.689Z,6.21
2019-03-28T00:46:56.335Z,6.21
2019-03-28T00:49:01.984Z,6.20
2019-03-28T00:51:07.689Z,6.19
2019-03-28T00:53:13.314Z,6.22
2019-03-28T00:55:18.962Z,6.22
2019-03-28T00:57:24.635Z,6.25
2019-03-28T00:59:30.280Z,6.24
2019-03-28T01:01:36.007Z,6.26
2019-03-28T01:03:41.686Z,6.28
2019-03-28T01:05:47.326Z,6.29
2019-03-28T01:07:52.967Z,6.30
2019-03-28T01:09:59.763Z,6.31
2019-03-28T01:12:05.571Z,6.33
2019-03-28T01:14:11.223Z,6.33
2019-03-28T01:16:16.906Z,6.33
2019-03-28T01:18:22.554Z,6.33
2019-03-28T01:20:28.130Z,6.33
2019-03-28T01:22:33.801Z,6.34
2019-03-28T01:24:39.382Z,6.33
2019-03-28T01:26:56.639Z,6.36
2019-03-28T01:28:52.273Z,6.36
2019-03-28T01:30:57.926Z,6.35
2019-03-28T01:33:03.497Z,6.35
2019-03-28T01:35:09.104Z,6.34
2019-03-28T01:37:14.679Z,6.35
2019-03-28T01:39:20.187Z,6.34
2019-03-28T01:41:25.720Z,6.35
2019-03-28T01:43:31.228Z,6.35
2019-03-28T01:45:36.875Z,6.36
2019-03-28T01:47:43.170Z,6.34
2019-03-28T01:49:48.945Z,6.37
2019-03-28T01:51:54.587Z,6.38
2019-03-28T01:54:00.261Z,6.41
2019-03-28T01:56:05.903Z,6.42
2019-03-28T01:58:11.550Z,6.43
2019-03-28T02:00:17.519Z,6.43
2019-03-28T02:02:23.163Z,6.42
2019-03-28T02:04:28.669Z,6.42
2019-03-28T02:06:34.305Z,6.42
2019-03-28T02:08:40.087Z,6.46
2019-03-28T02:10:45.732Z,6.48
2019-03-28T02:12:51.503Z,6.48
2019-03-28T02:14:57.149Z,6.49
2019-03-28T02:17:02.793Z,6.50
2019-03-28T02:19:08.465Z,6.53
2019-03-28T02:21:14.126Z,6.55
2019-03-28T02:23:19.751Z,6.53
2019-03-28T02:25:25.491Z,6.53
2019-03-28T02:27:31.138Z,6.55
2019-03-28T02:29:36.785Z,6.57
2019-03-28T02:31:43.080Z,6.55
2019-03-28T02:33:49.201Z,6.56
2019-03-28T02:35:54.840Z,6.55
2019-03-28T02:38:00.509Z,6.54
2019-03-28T02:40:07.565Z,6.55
2019-03-28T02:42:14.004Z,6.57
2019-03-28T02:44:19.742Z,6.59
2019-03-28T02:46:25.387Z,6.59
2019-03-28T02:48:31.033Z,6.60
2019-03-28T02:50:37.709Z,6.57
2019-03-28T02:52:43.802Z,6.61
2019-03-28T02:54:49.544Z,6.61
2019-03-28T02:56:55.204Z,6.60
2019-03-28T02:59:00.784Z,6.62
2019-03-28T03:01:06.430Z,6.61
2019-03-28T03:03:13.216Z,6.59
2019-03-28T03:05:18.908Z,6.60
2019-03-28T03:07:24.639Z,6.61
2019-03-28T03:09:30.318Z,6.63
2019-03-28T03:11:36.048Z,6.67
2019-03-28T03:13:41.725Z,6.67
2019-03-28T03:15:48.482Z,6.68
2019-03-28T03:17:54.329Z,6.65
2019-03-28T03:19:59.973Z,6.67
2019-03-28T03:22:05.646Z,6.67
2019-03-28T03:24:11.293Z,6.68
2019-03-28T03:26:16.963Z,6.70
2019-03-28T03:28:22.637Z,6.67
2019-03-28T03:30:28.420Z,6.66
2019-03-28T03:32:34.115Z,6.67
2019-03-28T03:34:39.791Z,6.68
2019-03-28T03:36:45.659Z,6.67
2019-03-28T03:38:51.315Z,6.67
2019-03-28T03:40:56.983Z,6.65
2019-03-28T03:43:02.634Z,6.67
2019-03-28T03:45:10.164Z,6.67
2019-03-28T03:47:15.929Z,6.68
2019-03-28T03:49:21.575Z,6.67
2019-03-28T03:51:27.231Z,6.67
2019-03-28T03:53:32.923Z,6.69
2019-03-28T03:55:38.565Z,6.69
2019-03-28T03:57:44.208Z,6.69
2019-03-28T03:59:50.092Z,6.69
2019-03-28T04:01:55.786Z,6.71
2019-03-28T04:04:02.524Z,6.73
2019-03-28T04:06:08.202Z,6.70
2019-03-28T04:08:13.863Z,6.70
2019-03-28T04:10:19.543Z,6.71
2019-03-28T04:12:25.268Z,6.69
2019-03-28T04:14:30.914Z,6.71
2019-03-28T04:16:36.559Z,6.73
2019-03-28T04:18:42.240Z,6.72
2019-03-28T04:20:48.014Z,6.72
2019-03-28T04:22:53.655Z,6.72
2019-03-28T04:24:59.331Z,6.72
2019-03-28T04:27:05.064Z,6.71
2019-03-28T04:29:10.692Z,6.72
2019-03-28T04:31:16.367Z,6.70
2019-03-28T04:33:21.949Z,6.73
2019-03-28T04:35:27.592Z,6.74
2019-03-28T04:37:33.272Z,6.74
2019-03-28T04:39:38.918Z,6.74
2019-03-28T04:41:44.604Z,6.77
2019-03-28T04:43:50.928Z,6.75
2019-03-28T04:45:57.163Z,6.77
2019-03-28T04:48:02.812Z,6.79
2019-03-28T04:50:09.086Z,6.77
2019-03-28T04:52:14.738Z,6.78
2019-03-28T04:54:20.393Z,6.83
2019-03-28T04:56:26.086Z,6.82
2019-03-28T04:58:43.804Z,6.85
2019-03-28T05:00:39.092Z,6.85
2019-03-28T05:02:46.246Z,6.83
2019-03-28T05:04:51.995Z,6.84
2019-03-28T05:06:57.639Z,6.90
2019-03-28T05:09:04.515Z,6.91
2019-03-28T05:11:10.562Z,6.90
2019-03-28T05:13:16.208Z,6.93
2019-03-28T05:15:21.891Z,6.96
2019-03-28T05:17:27.534Z,6.99
2019-03-28T05:19:33.177Z,6.95
2019-03-28T05:21:38.853Z,6.95
2019-03-28T05:23:44.554Z,6.99
2019-03-28T05:25:50.285Z,7.02
2019-03-28T05:27:56.129Z,7.03
2019-03-28T05:30:01.782Z,7.03
2019-03-28T05:32:07.618Z,7.10
2019-03-28T05:34:13.300Z,7.20
2019-03-28T05:36:18.953Z,7.26
2019-03-28T05:38:24.642Z,7.33
2019-03-28T05:40:30.321Z,7.36
2019-03-28T05:42:35.975Z,7.34
2019-03-28T05:44:41.619Z,7.38
2019-03-28T05:46:47.295Z,7.37
2019-03-28T05:48:52.873Z,7.31
2019-03-28T05:50:58.516Z,7.26
2019-03-28T05:53:04.309Z,7.29
2019-03-28T05:55:09.958Z,7.29
2019-03-28T05:57:15.605Z,7.29
2019-03-28T05:59:22.392Z,7.33
2019-03-28T06:01:28.123Z,7.33
2019-03-28T06:03:33.762Z,7.34
2019-03-28T06:05:39.436Z,7.35
2019-03-28T06:07:45.017Z,7.34
2019-03-28T06:09:50.662Z,7.39
2019-03-28T06:11:56.339Z,7.34
2019-03-28T06:14:01.988Z,7.38
2019-03-28T06:16:07.710Z,7.43
2019-03-28T06:18:13.393Z,7.46
2019-03-28T06:20:19.043Z,7.54
2019-03-28T06:22:24.695Z,7.54
2019-03-28T06:24:31.247Z,7.53
2019-03-28T06:26:37.184Z,7.55
2019-03-28T06:28:42.975Z,7.55
2019-03-28T06:30:48.649Z,7.57
2019-03-28T06:32:54.316Z,7.61
2019-03-28T06:34:59.964Z,7.66
2019-03-28T06:37:06.425Z,7.70
2019-03-28T06:39:12.261Z,7.71
2019-03-28T06:41:17.980Z,7.72
2019-03-28T06:43:23.660Z,7.73
2019-03-28T06:45:29.304Z,7.76
2019-03-28T06:47:35.061Z,7.84
2019-03-28T06:49:40.731Z,7.95
2019-03-28T06:51:46.461Z,7.94
2019-03-28T06:53:52.121Z,7.92
2019-03-28T06:55:57.926Z,7.95
2019-03-28T06:58:03.755Z,8.06
2019-03-28T07:00:10.706Z,8.19
2019-03-28T07:02:17.326Z,8.21
2019-03-28T07:04:23.075Z,8.20
2019-03-28T07:06:28.719Z,8.15
2019-03-28T07:08:34.419Z,8.19
2019-03-28T07:10:40.507Z,8.32
2019-03-28T07:12:46.221Z,8.51
2019-03-28T07:14:51.912Z,8.64
2019-03-28T07:16:58.661Z,8.84
2019-03-28T07:19:04.305Z,9.02
2019-03-28T07:21:09.974Z,9.23
2019-03-28T07:23:15.697Z,9.32
2019-03-28T07:25:21.349Z,9.37
2019-03-28T07:27:27.020Z,9.59
2019-03-28T07:29:32.980Z,9.91
2019-03-28T07:31:38.627Z,10.41
2019-03-28T07:33:44.309Z,11.19
2019-03-28T07:35:49.970Z,11.58
2019-03-28T07:37:55.621Z,11.27
2019-03-28T07:40:01.293Z,10.97
2019-03-28T07:42:06.950Z,11.12
2019-03-28T07:44:12.626Z,11.02
2019-03-28T07:46:18.486Z,11.18
2019-03-28T07:48:24.235Z,11.45
2019-03-28T07:50:29.978Z,11.63
2019-03-28T07:52:37.272Z,11.29
2019-03-28T07:54:43.999Z,11.42
2019-03-28T07:56:49.719Z,11.79
2019-03-28T07:58:55.397Z,12.34
2019-03-28T08:01:01.124Z,12.76
2019-03-28T08:03:07.154Z,12.83
2019-03-28T08:05:13.729Z,12.67
2019-03-28T08:07:19.387Z,12.94
2019-03-28T08:09:36.074Z,12.79
2019-03-28T08:11:32.455Z,12.30
2019-03-28T08:13:38.441Z,11.93
2019-03-28T08:15:44.123Z,11.58
2019-03-28T08:17:49.811Z,11.26
2019-03-28T08:19:55.459Z,10.96
2019-03-28T08:22:01.124Z,10.96
2019-03-28T08:24:07.908Z,10.98
2019-03-28T08:26:13.563Z,10.96
2019-03-28T08:28:20.405Z,11.00
2019-03-28T08:30:36.689Z,10.98
2019-03-28T08:32:43.224Z,10.93
2019-03-28T08:34:48.878Z,11.43
2019-03-28T08:36:54.866Z,11.84
2019-03-28T08:39:00.950Z,11.83
2019-03-28T08:41:08.169Z,11.22
2019-03-28T08:43:14.776Z,10.94
2019-03-28T08:45:20.677Z,10.77
2019-03-28T08:47:26.330Z,10.54
2019-03-28T08:49:32.006Z,10.47
2019-03-28T08:51:37.681Z,10.31
2019-03-28T08:53:43.401Z,10.23
2019-03-28T08:55:49.477Z,10.21
2019-03-28T08:57:55.161Z,10.16
2019-03-28T09:00:00.828Z,10.11
2019-03-28T09:02:06.496Z,10.09
2019-03-28T09:04:12.159Z,9.90
2019-03-28T09:06:17.805Z,9.76
2019-03-28T09:08:23.490Z,9.66
2019-03-28T09:10:29.128Z,9.62
2019-03-28T09:12:35.425Z,9.70
2019-03-28T09:14:41.432Z,9.90
2019-03-28T09:16:48.077Z,10.07
2019-03-28T09:18:53.734Z,10.31
2019-03-28T09:20:59.430Z,10.51
2019-03-28T09:23:05.088Z,10.71
2019-03-28T09:25:12.388Z,10.93
2019-03-28T09:27:18.398Z,11.15
2019-03-28T09:29:24.048Z,11.45
2019-03-28T09:31:29.700Z,11.62
2019-03-28T09:33:35.590Z,11.74
2019-03-28T09:35:42.625Z,11.85
2019-03-28T09:37:48.504Z,11.67
2019-03-28T09:39:54.218Z,11.50
2019-03-28T09:41:59.784Z,11.42
2019-03-28T09:44:05.640Z,11.44
2019-03-28T09:46:11.331Z,11.44
2019-03-28T09:48:16.988Z,11.43
2019-03-28T09:50:22.641Z,11.44
2019-03-28T09:52:28.323Z,11.37
2019-03-28T09:54:33.968Z,11.45
2019-03-28T09:56:39.625Z,11.53
2019-03-28T09:58:45.375Z,11.27
2019-03-28T10:01:02.027Z,11.27
2019-03-28T10:02:59.982Z,11.29
2019-03-28T10:05:07.411Z,11.30
2019-03-28T10:07:13.195Z,11.05
2019-03-28T10:09:18.788Z,10.91
2019-03-28T10:11:24.478Z,10.80
2019-03-28T10:13:31.133Z,10.75
2019-03-28T10:15:37.223Z,10.82
2019-03-28T10:17:43.154Z,10.92
2019-03-28T10:19:48.871Z,10.99
2019-03-28T10:21:54.521Z,11.08
2019-03-28T10:24:00.208Z,11.11
2019-03-28T10:26:06.565Z,11.12
2019-03-28T10:28:12.360Z,11.25
2019-03-28T10:30:19.819Z,11.35
2019-03-28T10:32:25.469Z,11.32
2019-03-28T10:34:31.327Z,11.38
2019-03-28T10:36:36.936Z,11.51
2019-03-28T10:38:42.592Z,11.62
2019-03-28T10:40:48.246Z,11.58
2019-03-28T10:42:53.940Z,11.58
2019-03-28T10:44:59.599Z,11.66
2019-03-28T10:47:05.322Z,12.02
2019-03-28T10:49:11.506Z,12.26
2019-03-28T10:51:17.144Z,12.39
2019-03-28T10:53:22.798Z,12.36
2019-03-28T10:55:28.503Z,12.37
2019-03-28T10:57:34.153Z,12.41
2019-03-28T10:59:39.805Z,12.47
2019-03-28T11:01:50.185Z,12.57
2019-03-28T11:03:52.854Z,12.66
2019-03-28T11:05:58.679Z,12.65
2019-03-28T11:08:04.358Z,12.14
2019-03-28T11:10:10.021Z,11.88
2019-03-28T11:12:15.671Z,11.77
2019-03-28T11:14:22.355Z,11.64
2019-03-28T11:16:28.041Z,11.59
2019-03-28T11:18:33.694Z,11.62
2019-03-28T11:20:40.082Z,11.72
2019-03-28T11:22:46.122Z,11.85
2019-03-28T11:24:51.793Z,12.01
2019-03-28T11:26:57.752Z,12.16
2019-03-28T11:29:03.723Z,12.29
2019-03-28T11:31:09.378Z,12.23
2019-03-28T11:33:15.052Z,12.05
2019-03-28T11:35:20.726Z,11.70
2019-03-28T11:37:27.486Z,11.52
2019-03-28T11:39:33.935Z,11.34
2019-03-28T11:41:39.587Z,11.47
2019-03-28T11:43:45.598Z,11.68
2019-03-28T11:45:51.338Z,11.97
2019-03-28T11:47:56.997Z,12.08
2019-03-28T11:50:02.944Z,12.24
2019-03-28T11:52:08.730Z,12.45
2019-03-28T11:54:14.382Z,12.56
2019-03-28T11:56:20.119Z,12.43
2019-03-28T11:58:25.810Z,12.05
2019-03-28T12:00:31.531Z,11.71
2019-03-28T12:02:37.326Z,11.47
2019-03-28T12:04:43.005Z,11.48
2019-03-28T12:06:49.021Z,11.48
2019-03-28T12:08:56.027Z,11.58
2019-03-28T12:11:01.981Z,11.75
2019-03-28T12:13:07.670Z,12.02
2019-03-28T12:15:14.117Z,12.19
2019-03-28T12:17:19.795Z,12.29
2019-03-28T12:19:25.449Z,12.45
2019-03-28T12:21:31.109Z,12.59
2019-03-28T12:23:36.800Z,12.63
2019-03-28T12:25:43.449Z,12.59
2019-03-28T12:27:49.119Z,12.68
2019-03-28T12:29:54.790Z,12.56
2019-03-28T12:32:14.408Z,12.42
2019-03-28T12:34:07.797Z,12.33
2019-03-28T12:36:13.549Z,12.29
2019-03-28T12:38:19.402Z,12.44
2019-03-28T12:40:25.156Z,12.26
2019-03-28T12:42:30.846Z,12.22
2019-03-28T12:44:36.581Z,12.21
2019-03-28T12:46:42.244Z,12.15
2019-03-28T12:48:47.912Z,12.20
2019-03-28T12:50:59.051Z,12.46
2019-03-28T12:53:00.921Z,12.62
2019-03-28T12:55:08.483Z,12.52
2019-03-28T12:57:14.606Z,12.51
2019-03-28T12:59:20.368Z,12.24
2019-03-28T13:01:26.047Z,12.13
2019-03-28T13:03:44.750Z,12.16
2019-03-28T13:05:39.287Z,12.16
2019-03-28T13:07:44.966Z,12.12
2019-03-28T13:09:50.634Z,12.16
2019-03-28T13:11:57.350Z,12.23
2019-03-28T13:14:03.114Z,12.25
2019-03-28T13:16:08.822Z,12.33
2019-03-28T13:18:14.488Z,12.24
2019-03-28T13:20:22.179Z,12.23
2019-03-28T13:22:28.544Z,12.21
2019-03-28T13:24:35.281Z,12.51
2019-03-28T13:26:40.967Z,12.77
2019-03-28T13:28:46.615Z,12.81
2019-03-28T13:30:52.265Z,12.55
2019-03-28T13:32:57.950Z,12.32
2019-03-28T13:35:04.903Z,12.21
2019-03-28T13:37:10.554Z,12.16
2019-03-28T13:39:16.248Z,12.22
2019-03-28T13:41:21.892Z,12.30
2019-03-28T13:43:27.550Z,12.31
2019-03-28T13:45:33.230Z,12.28
2019-03-28T13:47:38.885Z,12.31
2019-03-28T13:49:44.542Z,12.37
2019-03-28T13:51:50.221Z,12.45
2019-03-28T13:53:55.872Z,12.49
2019-03-28T13:56:01.605Z,12.39
2019-03-28T13:58:07.286Z,12.39
2019-03-28T14:00:14.613Z,12.40
2019-03-28T14:02:20.256Z,12.23
2019-03-28T14:04:25.940Z,12.27
2019-03-28T14:06:31.603Z,12.27
2019-03-28T14:08:37.263Z,12.27
2019-03-28T14:10:42.948Z,12.19
2019-03-28T14:12:48.602Z,12.22
2019-03-28T14:14:54.331Z,12.32
2019-03-28T14:17:00.031Z,12.41
2019-03-28T14:19:05.677Z,12.46
2019-03-28T14:21:11.532Z,12.46
2019-03-28T14:23:17.208Z,12.38
2019-03-28T14:25:22.867Z,12.25
2019-03-28T14:27:28.534Z,12.17
2019-03-28T14:29:34.220Z,12.06
2019-03-28T14:31:39.871Z,12.08
2019-03-28T14:33:45.529Z,12.08
2019-03-28T14:35:51.210Z,12.09
2019-03-28T14:37:56.994Z,12.04
2019-03-28T14:40:02.711Z,11.96
2019-03-28T14:42:08.387Z,11.95
2019-03-28T14:44:14.037Z,11.90
2019-03-28T14:46:19.693Z,11.85
2019-03-28T14:48:26.474Z,11.81
2019-03-28T14:50:35.036Z,11.85
2019-03-28T14:52:40.799Z,11.90
2019-03-28T14:54:46.470Z,11.94
2019-03-28T14:56:52.534Z,11.96
2019-03-28T14:58:58.615Z,11.99
2019-03-28T15:01:04.629Z,11.98
2019-03-28T15:03:24.514Z,11.93
2019-03-28T15:05:17.635Z,11.88
2019-03-28T15:07:23.316Z,11.86
2019-03-28T15:09:28.979Z,11.82
2019-03-28T15:11:34.631Z,11.70
2019-03-28T15:13:40.719Z,11.61
2019-03-28T15:15:46.363Z,11.53
2019-03-28T15:17:52.022Z,11.53
2019-03-28T15:19:57.828Z,11.53
2019-03-28T15:22:03.543Z,11.53
2019-03-28T15:24:09.199Z,11.54
2019-03-28T15:26:14.880Z,11.51
2019-03-28T15:28:20.649Z,11.48
2019-03-28T15:30:26.302Z,11.46
2019-03-28T15:32:32.078Z,11.44
2019-03-28T15:34:37.755Z,11.41
2019-03-28T15:36:43.485Z,11.37
2019-03-28T15:38:49.174Z,11.37
2019-03-28T15:40:54.826Z,11.36
2019-03-28T15:43:00.475Z,11.34
2019-03-28T15:45:07.762Z,11.31
2019-03-28T15:47:13.497Z,11.25
2019-03-28T15:49:19.179Z,11.18
2019-03-28T15:51:24.939Z,11.13
2019-03-28T15:53:30.604Z,11.08
2019-03-28T15:55:37.374Z,11.04
2019-03-28T15:57:43.051Z,11.00
2019-03-28T15:59:48.696Z,10.97
2019-03-28T16:01:54.364Z,10.95
2019-03-28T16:04:00.037Z,10.91
2019-03-28T16:06:05.840Z,10.86
2019-03-28T16:08:11.504Z,10.84
2019-03-28T16:10:18.126Z,10.81
2019-03-28T16:12:23.906Z,10.79
2019-03-28T16:14:29.734Z,10.74
2019-03-28T16:16:35.539Z,10.72
2019-03-28T16:18:41.259Z,10.71
2019-03-28T16:20:47.099Z,10.66
2019-03-28T16:22:52.871Z,10.62
2019-03-28T16:24:58.647Z,10.58
2019-03-28T16:27:04.512Z,10.56
2019-03-28T16:29:10.356Z,10.51
2019-03-28T16:31:16.144Z,10.47
2019-03-28T16:33:21.874Z,10.40
2019-03-28T16:35:27.565Z,10.35
2019-03-28T16:37:33.320Z,10.31
2019-03-28T16:39:39.082Z,10.26
2019-03-28T16:41:44.781Z,10.20
2019-03-28T16:43:50.537Z,10.13
2019-03-28T16:45:57.510Z,10.06
2019-03-28T16:48:03.324Z,10.00
2019-03-28T16:50:09.324Z,9.94
2019-03-28T16:52:15.056Z,9.89
2019-03-28T16:54:20.929Z,9.83
2019-03-28T16:56:27.907Z,9.78
2019-03-28T16:58:33.656Z,9.72
2019-03-28T17:00:39.687Z,9.67
2019-03-28T17:02:45.451Z,9.60
2019-03-28T17:04:51.099Z,9.57
2019-03-28T17:06:57.101Z,9.48
2019-03-28T17:09:04.554Z,9.43
2019-03-28T17:11:12.320Z,9.41
2019-03-28T17:13:18.793Z,9.38
2019-03-28T17:15:25.907Z,9.37
2019-03-28T17:17:33.290Z,9.33
2019-03-28T17:19:38.983Z,9.28
2019-03-28T17:21:44.702Z,9.21
2019-03-28T17:23:50.355Z,9.14
2019-03-28T17:25:56.102Z,9.08
2019-03-28T17:28:01.750Z,9.03
2019-03-28T17:30:07.898Z,8.97
2019-03-28T17:32:13.651Z,8.91
2019-03-28T17:34:19.301Z,8.85
2019-03-28T17:36:26.822Z,8.75
2019-03-28T17:38:32.402Z,8.64
2019-03-28T17:40:38.054Z,8.54
2019-03-28T17:42:43.708Z,8.43
2019-03-28T17:44:49.397Z,8.37
2019-03-28T17:46:55.049Z,8.31
2019-03-28T17:49:00.695Z,8.27
2019-03-28T17:51:06.363Z,8.21
2019-03-28T17:53:12.009Z,8.16
2019-03-28T17:55:19.831Z,8.13
2019-03-28T17:57:25.722Z,8.10
2019-03-28T17:59:31.362Z,8.06
2019-03-28T18:01:37.082Z,8.04
2019-03-28T18:03:42.845Z,7.98
2019-03-28T18:05:57.850Z,7.93
2019-03-28T18:07:55.890Z,7.89
2019-03-28T18:10:01.569Z,7.82
2019-03-28T18:13:05.662Z,7.75
2019-03-28T18:15:13.350Z,7.62
2019-03-28T18:17:20.091Z,7.53
2019-03-28T18:19:26.751Z,7.42
2019-03-28T18:21:33.446Z,7.34
2019-03-28T18:23:40.183Z,7.30
2019-03-28T18:25:46.847Z,7.25
2019-03-28T18:27:53.541Z,7.23
2019-03-28T18:30:00.265Z,7.17
2019-03-28T18:32:06.997Z,7.10
2019-03-28T18:34:13.761Z,7.04
2019-03-28T18:36:20.427Z,7.01
2019-03-28T18:38:27.131Z,6.95
2019-03-28T18:40:33.902Z,6.87
2019-03-28T18:42:42.451Z,6.83
2019-03-28T18:44:49.123Z,6.79
2019-03-28T18:46:55.820Z,6.72
2019-03-28T18:49:02.499Z,6.67
2019-03-28T18:51:09.182Z,6.64
2019-03-28T18:53:15.895Z,6.57
2019-03-28T18:55:22.589Z,6.49
2019-03-28T18:57:29.246Z,6.30
2019-03-28T18:59:35.932Z,6.12
2019-03-28T19:01:42.785Z,5.97
2019-03-28T19:03:49.448Z,5.87
2019-03-28T19:05:56.189Z,5.78
2019-03-28T19:08:02.851Z,5.72
2019-03-28T19:10:10.385Z,5.74
2019-03-28T19:12:17.157Z,5.77
2019-03-28T19:14:23.891Z,5.78
2019-03-28T19:16:30.559Z,5.79
2019-03-28T19:18:37.257Z,5.79
2019-03-28T19:20:43.922Z,5.79
2019-03-28T19:22:52.233Z,6.02
2019-03-28T19:24:58.998Z,6.11
2019-03-28T19:27:05.667Z,6.03
2019-03-28T19:29:12.413Z,5.96
2019-03-28T19:31:19.102Z,5.93
2019-03-28T19:33:25.769Z,5.83
2019-03-28T19:35:33.540Z,5.76
2019-03-28T19:37:42.421Z,5.68
2019-03-28T19:39:49.140Z,5.60
2019-03-28T19:41:55.996Z,5.51
2019-03-28T19:44:03.872Z,5.44
2019-03-28T19:46:10.532Z,5.38
2019-03-28T19:48:17.208Z,5.34
2019-03-28T19:50:30.454Z,5.31
2019-03-28T19:52:37.616Z,5.30
2019-03-28T19:54:44.388Z,5.25
2019-03-28T19:56:51.087Z,5.18
2019-03-28T19:58:59.217Z,5.13
2019-03-28T20:01:07.012Z,5.08
2019-03-28T20:03:13.724Z,5.04
2019-03-28T20:05:20.392Z,5.00
2019-03-28T20:07:27.132Z,4.96
2019-03-28T20:09:33.832Z,4.96
2019-03-28T20:11:40.569Z,4.93
2019-03-28T20:13:47.302Z,4.93
2019-03-28T20:15:55.809Z,4.92
2019-03-28T20:18:02.549Z,4.88
2019-03-28T20:20:10.420Z,4.84
2019-03-28T20:22:17.289Z,4.79
2019-03-28T20:24:23.965Z,4.73
2019-03-28T20:26:30.700Z,4.66
2019-03-28T20:28:39.075Z,4.58
2019-03-28T20:30:46.125Z,4.55
2019-03-28T20:32:53.795Z,4.51
2019-03-28T20:35:00.600Z,4.44
2019-03-28T20:37:07.338Z,4.44
2019-03-28T20:39:14.073Z,4.51
2019-03-28T20:41:20.772Z,4.57
2019-03-28T20:43:28.217Z,4.58
2019-03-28T20:45:34.947Z,4.59
2019-03-28T20:47:44.503Z,4.57
2019-03-28T20:49:52.712Z,4.54
2019-03-28T20:51:59.452Z,4.52
2019-03-28T20:54:10.155Z,4.51
2019-03-28T20:56:17.765Z,4.47
2019-03-28T20:58:24.711Z,4.45
2019-03-28T21:00:48.180Z,4.41
2019-03-28T21:02:54.914Z,4.37
2019-03-28T21:05:02.529Z,4.32
2019-03-28T21:07:09.424Z,4.28
2019-03-28T21:09:16.091Z,4.25
2019-03-28T21:11:22.760Z,4.20
2019-03-28T21:13:30.030Z,4.17
2019-03-28T21:15:36.876Z,4.16
2019-03-28T21:17:43.548Z,4.14
2019-03-28T21:19:50.314Z,4.13
2019-03-28T21:21:56.985Z,4.10
2019-03-28T21:24:04.092Z,4.03
2019-03-28T21:26:11.589Z,3.96
2019-03-28T21:28:18.321Z,3.86
2019-03-28T21:30:27.067Z,3.82
2019-03-28T21:32:33.396Z,3.77
2019-03-28T21:34:40.151Z,3.73
2019-03-28T21:36:48.401Z,3.67
2019-03-28T21:38:55.186Z,3.57
2019-03-28T21:41:01.861Z,3.49
2019-03-28T21:43:08.530Z,3.42
2019-03-28T21:45:15.609Z,3.36
2019-03-28T21:47:22.339Z,3.34
2019-03-28T21:49:29.002Z,3.32
2019-03-28T21:51:35.766Z,3.25
2019-03-28T21:53:42.527Z,3.16
2019-03-28T21:55:55.557Z,3.13
2019-03-28T21:57:57.693Z,3.09
2019-03-28T22:00:07.105Z,3.06
2019-03-28T22:02:13.883Z,3.02
2019-03-28T22:04:20.649Z,2.98
2019-03-28T22:06:27.373Z,2.95
2019-03-28T22:08:35.688Z,2.89
2019-03-28T22:10:43.077Z,2.84
2019-03-28T22:12:50.247Z,2.80
2019-03-28T22:14:56.987Z,2.79
2019-03-28T22:17:03.772Z,2.78
2019-03-28T22:19:10.442Z,2.76
2019-03-28T22:21:17.111Z,2.73
2019-03-28T22:23:23.808Z,2.69
2019-03-28T22:25:30.476Z,2.66
2019-03-28T22:27:37.223Z,2.64
2019-03-28T22:29:43.910Z,2.63
2019-03-28T22:31:50.572Z,2.63
2019-03-28T22:33:57.337Z,2.64
2019-03-28T22:36:04.054Z,2.63
2019-03-28T22:38:10.717Z,2.61
2019-03-28T22:40:17.392Z,2.57
2019-03-28T22:42:24.090Z,2.52
2019-03-28T22:44:33.766Z,2.48
2019-03-28T22:46:39.765Z,2.46
2019-03-28T22:48:46.794Z,2.42
2019-03-28T22:50:53.460Z,2.39
2019-03-28T22:53:00.060Z,2.34
2019-03-28T22:55:09.623Z,2.33
2019-03-28T22:57:16.388Z,2.28
2019-03-28T22:59:23.263Z,2.24
2019-03-28T23:01:30.071Z,2.21
2019-03-28T23:03:36.804Z,2.16
2019-03-28T23:05:43.482Z,2.12
2019-03-28T23:07:51.177Z,2.08
2019-03-28T23:09:57.847Z,2.05
2019-03-28T23:12:05.586Z,2.02
2019-03-28T23:14:12.283Z,2.00
2019-03-28T23:16:18.952Z,1.99
2019-03-28T23:18:25.639Z,1.99
2019-03-28T23:20:33.799Z,2.03
2019-03-28T23:22:40.868Z,2.03
2019-03-28T23:24:47.545Z,2.05
2019-03-28T23:26:54.249Z,2.04
2019-03-28T23:29:04.054Z,2.04
2019-03-28T23:31:10.717Z,2.03
2019-03-28T23:33:17.403Z,2.00
2019-03-28T23:35:24.112Z,1.99
2019-03-28T23:37:30.875Z,1.98
2019-03-28T23:39:37.847Z,1.98
2019-03-28T23:41:45.015Z,1.98
2019-03-28T23:43:51.688Z,1.95
2019-03-28T23:45:58.381Z,1.94
2019-03-28T23:48:05.158Z,1.94
2019-03-28T23:50:12.003Z,1.95
2019-03-28T23:52:18.697Z,1.96
2019-03-28T23:54:25.477Z,1.94
2019-03-28T23:56:33.017Z,1.90
2019-03-28T23:58:39.781Z,1.85
